createdAt,value
2023-02-17T00:00:58.462Z,21.65
2023-02-17T00:03:25.517Z,24.17
2023-02-17T00:05:53.379Z,21.90
2023-02-17T00:08:20.470Z,21.52
2023-02-17T00:10:56.617Z,22.27
2023-02-17T00:13:23.692Z,24.85
2023-02-17T00:15:50.628Z,23.00
2023-02-17T00:18:17.565Z,22.10
2023-02-17T00:20:44.478Z,23.55
2023-02-17T00:23:11.401Z,24.17
2023-02-17T00:25:38.945Z,24.15
2023-02-17T00:28:06.101Z,26.80
2023-02-17T00:30:34.342Z,25.15
2023-02-17T00:33:01.247Z,24.63
2023-02-17T00:35:28.111Z,25.58
2023-02-17T00:37:55.108Z,25.77
2023-02-17T00:40:22.128Z,26.40
2023-02-17T00:42:49.166Z,27.92
2023-02-17T00:45:16.326Z,28.50
2023-02-17T00:47:43.176Z,26.92
2023-02-17T00:50:10.249Z,26.45
2023-02-17T00:52:37.147Z,26.45
2023-02-17T00:55:04.156Z,28.00
2023-02-17T00:57:32.551Z,27.20
2023-02-17T00:59:59.497Z,25.42
2023-02-17T01:02:26.724Z,27.40
2023-02-17T01:04:54.346Z,25.33
2023-02-17T01:07:21.337Z,25.00
2023-02-17T01:09:48.278Z,26.05
2023-02-17T01:12:15.966Z,26.35
2023-02-17T01:14:42.863Z,24.65
2023-02-17T01:17:09.770Z,25.48
2023-02-17T01:19:36.649Z,24.65
2023-02-17T01:22:03.624Z,24.80
2023-02-17T01:24:30.551Z,23.38
2023-02-17T01:26:57.387Z,24.38
2023-02-17T01:29:27.591Z,25.08
2023-02-17T01:31:54.509Z,24.50
2023-02-17T01:34:21.405Z,23.77
2023-02-17T01:36:48.348Z,22.80
2023-02-17T01:39:16.520Z,24.63
2023-02-17T01:41:47.130Z,23.83
2023-02-17T01:44:18.795Z,24.17
2023-02-17T01:46:48.388Z,23.55
2023-02-17T01:49:35.923Z,21.73
2023-02-17T01:52:10.226Z,23.10
2023-02-17T01:54:45.478Z,23.95
2023-02-17T01:59:42.603Z,23.02
2023-02-17T02:02:09.714Z,24.08
2023-02-17T02:04:39.479Z,23.02
2023-02-17T02:07:13.949Z,22.65
2023-02-17T02:09:47.589Z,22.17
2023-02-17T02:12:46.883Z,24.40
2023-02-17T02:15:16.341Z,22.20
2023-02-17T02:18:09.367Z,23.63
2023-02-17T02:20:52.629Z,23.63
2023-02-17T02:23:54.569Z,24.73
2023-02-17T02:26:53.684Z,21.77
2023-02-17T02:29:24.729Z,24.40
2023-02-17T02:32:19.622Z,23.98
2023-02-17T02:34:58.664Z,23.38
2023-02-17T02:37:32.848Z,24.38
2023-02-17T02:40:03.834Z,22.98
2023-02-17T02:42:34.622Z,23.45
2023-02-17T02:45:01.719Z,22.40
2023-02-17T02:48:01.064Z,24.30
2023-02-17T02:50:50.592Z,30.65
2023-02-17T02:53:39.832Z,34.40
2023-02-17T02:56:13.471Z,32.33
2023-02-17T02:59:22.994Z,31.45
2023-02-17T03:02:21.167Z,25.08
2023-02-17T03:05:11.751Z,25.27
2023-02-17T03:07:45.503Z,23.42
2023-02-17T03:10:15.067Z,23.30
2023-02-17T03:12:42.402Z,23.90
2023-02-17T03:15:16.387Z,24.27
2023-02-17T03:17:43.331Z,23.60
2023-02-17T03:20:13.078Z,23.70
2023-02-17T03:22:43.797Z,26.55
2023-02-17T03:25:11.105Z,29.40
2023-02-17T03:27:38.103Z,24.20
2023-02-17T03:30:06.458Z,22.15
2023-02-17T03:32:33.452Z,24.40
2023-02-17T03:35:00.384Z,24.65
2023-02-17T03:37:27.348Z,24.70
2023-02-17T03:39:54.277Z,23.60
2023-02-17T03:42:21.406Z,26.05
2023-02-17T03:44:48.326Z,24.08
2023-02-17T03:47:15.191Z,24.02
2023-02-17T03:49:42.083Z,25.05
2023-02-17T03:52:10.608Z,25.95
2023-02-17T03:54:37.649Z,29.70
2023-02-17T03:57:04.624Z,26.63
2023-02-17T03:59:31.544Z,27.02
2023-02-17T04:01:58.471Z,27.15
2023-02-17T04:04:25.419Z,26.73
2023-02-17T04:06:52.466Z,24.38
2023-02-17T04:09:19.418Z,26.25
2023-02-17T04:11:46.435Z,28.83
2023-02-17T04:14:13.335Z,29.98
2023-02-17T04:16:40.294Z,28.58
2023-02-17T04:19:07.819Z,26.52
2023-02-17T04:21:35.135Z,24.63
2023-02-17T04:24:02.603Z,25.33
2023-02-17T04:26:30.154Z,24.38
2023-02-17T04:28:57.340Z,23.17
2023-02-17T04:31:26.031Z,26.85
2023-02-17T04:33:53.020Z,26.58
2023-02-17T04:36:19.963Z,23.08
2023-02-17T04:38:46.962Z,23.80
2023-02-17T04:41:13.883Z,21.58
2023-02-17T04:43:40.829Z,21.13
2023-02-17T04:46:08.011Z,20.88
2023-02-17T04:48:35.133Z,20.67
2023-02-17T04:51:02.052Z,21.50
2023-02-17T04:53:28.977Z,21.70
2023-02-17T04:55:55.847Z,22.45
2023-02-17T04:58:22.754Z,23.10
2023-02-17T05:00:50.533Z,24.50
2023-02-17T05:03:18.922Z,25.15
2023-02-17T05:05:46.000Z,23.42
2023-02-17T05:08:12.996Z,23.13
2023-02-17T05:10:39.890Z,24.27
2023-02-17T05:13:06.834Z,24.67
2023-02-17T05:15:34.958Z,24.60
2023-02-17T05:18:02.378Z,22.30
2023-02-17T05:20:29.691Z,23.60
2023-02-17T05:22:56.625Z,24.10
2023-02-17T05:25:23.618Z,23.40
2023-02-17T05:27:50.519Z,21.30
2023-02-17T05:30:17.518Z,21.52
2023-02-17T05:32:44.407Z,20.83
2023-02-17T05:35:11.348Z,21.35
2023-02-17T05:37:38.363Z,21.70
2023-02-17T05:40:06.067Z,21.77
2023-02-17T05:42:32.932Z,22.98
2023-02-17T05:44:59.834Z,22.85
2023-02-17T05:47:27.704Z,23.27
2023-02-17T05:49:54.850Z,24.48
2023-02-17T05:52:21.825Z,22.55
2023-02-17T05:54:48.744Z,22.95
2023-02-17T05:57:15.708Z,23.58
2023-02-17T05:59:42.629Z,24.60
2023-02-17T06:02:09.481Z,22.83
2023-02-17T06:04:36.536Z,23.33
2023-02-17T06:07:03.464Z,21.67
2023-02-17T06:09:30.435Z,21.60
2023-02-17T06:11:57.358Z,23.48
2023-02-17T06:14:24.366Z,23.25
2023-02-17T06:16:51.230Z,21.83
2023-02-17T06:19:18.152Z,26.00
2023-02-17T06:21:45.015Z,25.85
2023-02-17T06:24:11.829Z,28.17
2023-02-17T06:26:38.783Z,28.75
2023-02-17T06:29:06.802Z,28.77
2023-02-17T06:31:33.854Z,22.30
2023-02-17T06:34:00.774Z,23.52
2023-02-17T06:36:27.699Z,27.00
2023-02-17T06:38:54.542Z,30.05
2023-02-17T06:41:21.412Z,28.40
2023-02-17T06:43:48.387Z,23.65
2023-02-17T06:46:15.341Z,22.50
2023-02-17T06:48:42.218Z,22.42
2023-02-17T06:51:09.100Z,22.63
2023-02-17T06:53:35.982Z,22.38
2023-02-17T06:56:02.976Z,22.55
2023-02-17T06:58:32.783Z,22.13
2023-02-17T07:00:59.678Z,22.20
2023-02-17T07:03:26.942Z,21.23
2023-02-17T07:05:57.864Z,21.58
2023-02-17T07:08:25.590Z,20.58
2023-02-17T07:10:52.524Z,21.10
2023-02-17T07:13:19.436Z,19.80
2023-02-17T07:15:46.284Z,20.92
2023-02-17T07:18:13.209Z,19.80
2023-02-17T07:20:40.098Z,20.17
2023-02-17T07:23:07.387Z,19.85
2023-02-17T07:25:34.420Z,18.67
2023-02-17T07:28:01.332Z,19.52
2023-02-17T07:30:28.273Z,20.08
2023-02-17T07:32:55.179Z,19.58
2023-02-17T07:35:22.384Z,20.70
2023-02-17T07:37:49.269Z,20.98
2023-02-17T07:40:16.180Z,21.33
2023-02-17T07:42:43.218Z,20.98
2023-02-17T07:45:10.237Z,21.67
2023-02-17T07:47:37.153Z,20.75
2023-02-17T07:50:04.052Z,20.77
2023-02-17T07:52:30.900Z,22.92
2023-02-17T07:54:57.823Z,25.50
2023-02-17T07:57:24.772Z,25.67
2023-02-17T07:59:51.597Z,25.88
2023-02-17T08:02:18.881Z,24.80
2023-02-17T08:04:45.970Z,25.58
2023-02-17T08:07:12.864Z,24.48
2023-02-17T08:09:58.784Z,23.45
2023-02-17T08:12:44.257Z,24.40
2023-02-17T08:15:11.981Z,21.42
2023-02-17T08:17:39.017Z,22.83
2023-02-17T08:20:08.989Z,23.83
2023-02-17T08:22:36.718Z,25.08
2023-02-17T08:25:06.316Z,22.00
2023-02-17T08:27:33.666Z,20.45
2023-02-17T08:30:00.691Z,21.25
2023-02-17T08:32:27.670Z,21.88
2023-02-17T08:34:57.990Z,15.52
2023-02-17T08:37:24.965Z,16.83
2023-02-17T08:39:51.868Z,16.85
2023-02-17T08:42:19.903Z,16.25
2023-02-17T08:44:46.899Z,16.65
2023-02-17T08:47:13.929Z,19.10
2023-02-17T08:49:40.900Z,18.05
2023-02-17T08:52:07.931Z,17.40
2023-02-17T08:54:34.945Z,20.23
2023-02-17T08:57:01.977Z,14.55
2023-02-17T08:59:29.014Z,16.52
2023-02-17T09:01:56.111Z,18.30
2023-02-17T09:04:23.185Z,17.95
2023-02-17T09:06:52.573Z,19.33
2023-02-17T09:09:22.724Z,17.75
2023-02-17T09:11:49.793Z,15.07
2023-02-17T09:14:16.800Z,18.05
2023-02-17T09:16:43.751Z,15.95
2023-02-17T09:19:10.771Z,17.95
2023-02-17T09:21:37.734Z,18.92
2023-02-17T09:24:05.111Z,17.70
2023-02-17T09:26:32.067Z,17.27
2023-02-17T09:28:59.134Z,19.27
2023-02-17T09:31:27.809Z,18.85
2023-02-17T09:33:55.624Z,18.98
2023-02-17T09:36:26.090Z,19.13
2023-02-17T09:38:53.748Z,18.40
2023-02-17T09:41:23.930Z,18.05
2023-02-17T09:43:52.459Z,16.38
2023-02-17T09:46:28.613Z,19.38
2023-02-17T09:49:08.972Z,18.58
2023-02-17T09:51:43.294Z,20.85
2023-02-17T09:54:28.209Z,21.03
2023-02-17T09:56:57.169Z,18.67
2023-02-17T09:59:29.918Z,19.67
2023-02-17T10:01:57.753Z,20.88
2023-02-17T10:04:37.981Z,22.45
2023-02-17T10:07:17.969Z,17.80
2023-02-17T10:10:02.916Z,21.58
2023-02-17T10:12:37.495Z,20.05
2023-02-17T10:15:36.277Z,21.17
2023-02-17T10:18:16.252Z,20.85
2023-02-17T10:21:19.566Z,20.42
2023-02-17T10:23:47.685Z,18.92
2023-02-17T10:26:20.400Z,18.98
2023-02-17T10:28:59.447Z,20.75
2023-02-17T10:31:45.803Z,20.13
2023-02-17T10:34:45.582Z,21.45
2023-02-17T10:37:18.205Z,21.92
2023-02-17T10:39:50.768Z,20.08
2023-02-17T10:42:22.713Z,19.65
2023-02-17T10:44:52.613Z,19.23
2023-02-17T10:47:22.556Z,19.65
2023-02-17T10:49:55.136Z,17.42
2023-02-17T10:52:23.550Z,18.25
2023-02-17T10:54:57.771Z,16.95
2023-02-17T10:57:27.066Z,18.63
2023-02-17T10:59:54.300Z,19.60
2023-02-17T11:02:43.155Z,19.08
2023-02-17T11:05:28.394Z,19.92
2023-02-17T11:07:59.084Z,19.40
2023-02-17T11:10:32.833Z,16.30
2023-02-17T11:13:02.759Z,17.17
2023-02-17T11:15:34.893Z,18.48
2023-02-17T11:18:09.135Z,17.88
2023-02-17T11:20:36.566Z,18.27
2023-02-17T11:23:24.794Z,16.63
2023-02-17T11:26:01.210Z,16.33
2023-02-17T11:28:28.461Z,14.38
2023-02-17T11:30:58.473Z,15.50
2023-02-17T11:33:40.710Z,16.45
2023-02-17T11:36:13.703Z,14.82
2023-02-17T11:38:40.611Z,14.98
2023-02-17T11:41:08.365Z,16.60
2023-02-17T11:43:37.453Z,17.02
2023-02-17T11:46:25.386Z,15.73
2023-02-17T11:48:57.701Z,15.88
2023-02-17T11:51:45.876Z,15.30
2023-02-17T11:54:29.695Z,17.00
2023-02-17T11:57:07.262Z,14.82
2023-02-17T12:00:09.519Z,15.52
2023-02-17T12:03:02.108Z,14.90
2023-02-17T12:05:46.763Z,15.57
2023-02-17T12:08:19.593Z,14.93
2023-02-17T12:11:04.759Z,13.82
2023-02-17T12:14:04.635Z,14.80
2023-02-17T12:17:06.108Z,13.25
2023-02-17T12:19:57.391Z,13.35
2023-02-17T12:22:39.010Z,14.48
2023-02-17T12:25:29.168Z,14.60
2023-02-17T12:28:08.242Z,14.38
2023-02-17T12:30:47.996Z,13.68
2023-02-17T12:33:30.125Z,13.18
2023-02-17T12:36:03.613Z,13.07
2023-02-17T12:38:39.102Z,13.38
2023-02-17T12:41:08.538Z,12.05
2023-02-17T12:43:58.481Z,12.45
2023-02-17T12:46:53.803Z,10.45
2023-02-17T12:49:30.217Z,11.95
2023-02-17T12:52:22.396Z,12.00
2023-02-17T12:54:58.167Z,13.35
2023-02-17T12:57:42.844Z,12.43
2023-02-17T13:00:42.466Z,10.63
2023-02-17T13:03:09.908Z,11.40
2023-02-17T13:05:59.801Z,10.55
2023-02-17T13:09:02.422Z,10.80
2023-02-17T13:11:33.429Z,11.88
2023-02-17T13:14:12.265Z,11.70
2023-02-17T13:16:46.441Z,10.65
2023-02-17T13:19:15.550Z,10.50
2023-02-17T13:21:54.435Z,11.60
2023-02-17T13:24:34.848Z,11.52
2023-02-17T13:27:22.871Z,12.27
2023-02-17T13:30:24.661Z,11.63
2023-02-17T13:33:06.915Z,10.35
2023-02-17T13:35:37.613Z,11.98
2023-02-17T13:38:04.844Z,10.85
2023-02-17T13:40:40.816Z,12.85
2023-02-17T13:43:16.155Z,12.70
2023-02-17T13:46:04.460Z,11.60
2023-02-17T13:48:33.938Z,11.27
2023-02-17T13:51:21.816Z,12.65
2023-02-17T13:53:50.775Z,12.45
2023-02-17T13:56:29.602Z,13.00
2023-02-17T13:59:19.315Z,13.30
2023-02-17T14:01:47.147Z,12.52
2023-02-17T14:04:24.072Z,13.10
2023-02-17T14:06:52.689Z,13.38
2023-02-17T14:09:27.328Z,13.82
2023-02-17T14:11:55.916Z,13.43
2023-02-17T14:14:34.524Z,14.32
2023-02-17T14:17:07.245Z,13.68
2023-02-17T14:19:45.571Z,15.10
2023-02-17T14:22:31.277Z,14.90
2023-02-17T14:27:28.728Z,14.60
2023-02-17T14:29:55.760Z,14.35
2023-02-17T14:32:40.595Z,14.98
2023-02-17T14:35:13.535Z,14.93
2023-02-17T14:37:42.040Z,14.65
2023-02-17T14:40:21.107Z,15.90
2023-02-17T14:42:48.304Z,15.90
2023-02-17T14:45:16.113Z,16.48
2023-02-17T14:47:43.309Z,16.02
2023-02-17T14:50:11.181Z,16.13
2023-02-17T14:52:46.205Z,15.88
2023-02-17T14:55:33.809Z,18.35
2023-02-17T14:58:01.256Z,16.48
2023-02-17T15:00:28.661Z,17.77
2023-02-17T15:02:55.527Z,17.20
2023-02-17T15:05:22.579Z,17.77
2023-02-17T15:07:50.071Z,17.73
2023-02-17T15:10:25.162Z,17.30
2023-02-17T15:12:53.184Z,18.02
2023-02-17T15:15:20.788Z,18.08
2023-02-17T15:17:47.980Z,18.50
2023-02-17T15:20:16.847Z,19.20
2023-02-17T15:22:44.510Z,20.23
2023-02-17T15:25:19.319Z,17.63
2023-02-17T15:27:46.805Z,17.42
2023-02-17T15:30:16.301Z,17.40
2023-02-17T15:32:44.505Z,17.00
2023-02-17T15:35:18.225Z,15.48
2023-02-17T15:37:45.379Z,17.30
2023-02-17T15:40:27.311Z,18.58
2023-02-17T15:42:56.900Z,16.42
2023-02-17T15:45:24.895Z,19.60
2023-02-17T15:48:02.294Z,20.08
2023-02-17T15:50:29.423Z,18.52
2023-02-17T15:52:56.644Z,17.63
2023-02-17T15:55:23.912Z,17.88
2023-02-17T15:57:54.765Z,19.63
2023-02-17T16:00:24.533Z,20.30
2023-02-17T16:02:52.132Z,19.85
2023-02-17T16:05:20.450Z,18.00
2023-02-17T16:07:47.359Z,18.00
2023-02-17T16:10:18.264Z,18.40
2023-02-17T16:12:46.955Z,20.98
2023-02-17T16:15:16.782Z,19.50
2023-02-17T16:17:44.353Z,19.33
2023-02-17T16:20:29.976Z,19.63
2023-02-17T16:22:56.941Z,20.17
2023-02-17T16:25:24.235Z,18.35
2023-02-17T16:27:53.215Z,20.45
2023-02-17T16:30:35.769Z,20.60
2023-02-17T16:33:03.819Z,20.35
2023-02-17T16:35:32.507Z,21.98
2023-02-17T16:38:02.955Z,21.63
2023-02-17T16:40:32.040Z,22.30
2023-02-17T16:42:59.039Z,21.27
2023-02-17T16:45:28.877Z,22.67
2023-02-17T16:47:58.454Z,23.20
2023-02-17T16:50:29.292Z,22.52
2023-02-17T16:53:04.731Z,23.00
2023-02-17T16:58:00.615Z,23.65
2023-02-17T17:00:29.917Z,26.58
2023-02-17T17:02:57.999Z,25.02
2023-02-17T17:05:26.614Z,24.00
2023-02-17T17:07:54.350Z,22.77
2023-02-17T17:10:25.145Z,21.23
2023-02-17T17:12:52.661Z,21.98
2023-02-17T17:15:19.799Z,24.17
2023-02-17T17:17:52.645Z,21.77
2023-02-17T17:20:24.210Z,22.50
2023-02-17T17:22:51.658Z,21.73
2023-02-17T17:25:20.346Z,20.90
2023-02-17T17:27:47.263Z,23.25
2023-02-17T17:30:21.749Z,22.48
2023-02-17T17:32:49.063Z,23.85
2023-02-17T17:35:16.371Z,21.67
2023-02-17T17:37:43.529Z,24.10
2023-02-17T17:40:25.189Z,25.35
2023-02-17T17:42:52.809Z,25.40
2023-02-17T17:45:20.074Z,26.85
2023-02-17T17:47:46.974Z,28.80
2023-02-17T17:50:20.358Z,28.33
2023-02-17T17:52:47.775Z,32.92
2023-02-17T17:55:14.932Z,27.90
2023-02-17T17:57:42.042Z,27.60
2023-02-17T18:00:13.342Z,28.00
2023-02-17T18:02:43.292Z,27.98
2023-02-17T18:05:10.716Z,27.83
2023-02-17T18:07:38.629Z,26.88
2023-02-17T18:10:08.468Z,28.52
2023-02-17T18:12:36.092Z,26.90
2023-02-17T18:15:04.619Z,27.55
2023-02-17T18:17:35.245Z,26.05
2023-02-17T18:20:02.384Z,25.63
2023-02-17T18:22:29.283Z,26.85
2023-02-17T18:24:56.309Z,27.50
2023-02-17T18:27:23.392Z,26.98
2023-02-17T18:29:50.478Z,27.52
2023-02-17T18:32:17.586Z,30.95
2023-02-17T18:34:44.641Z,28.23
2023-02-17T18:37:11.554Z,28.98
2023-02-17T18:39:38.521Z,30.25
2023-02-17T18:42:05.720Z,26.75
2023-02-17T18:44:33.218Z,29.73
2023-02-17T18:47:00.174Z,22.38
2023-02-17T18:49:27.333Z,24.73
2023-02-17T18:51:54.764Z,22.75
2023-02-17T18:54:21.686Z,26.73
2023-02-17T18:56:48.706Z,23.65
2023-02-17T18:59:15.559Z,20.70
2023-02-17T19:01:43.459Z,20.52
2023-02-17T19:04:11.987Z,19.50
2023-02-17T19:06:39.212Z,21.42
2023-02-17T19:09:06.131Z,20.77
2023-02-17T19:11:34.241Z,21.58
2023-02-17T19:14:02.417Z,22.92
2023-02-17T19:16:31.002Z,23.98
2023-02-17T19:18:58.725Z,24.30
2023-02-17T19:21:25.792Z,21.73
2023-02-17T19:23:53.108Z,23.08
2023-02-17T19:26:20.616Z,23.60
2023-02-17T19:28:47.527Z,22.35
2023-02-17T19:31:17.097Z,24.25
2023-02-17T19:33:45.753Z,25.88
2023-02-17T19:36:16.790Z,24.58
2023-02-17T19:38:44.283Z,21.88
2023-02-17T19:41:13.120Z,26.30
2023-02-17T19:43:41.268Z,25.33
2023-02-17T19:46:10.497Z,24.90
2023-02-17T19:48:37.565Z,24.60
2023-02-17T19:51:07.095Z,24.23
2023-02-17T19:53:34.535Z,23.17
2023-02-17T19:56:14.085Z,21.48
2023-02-17T19:58:42.733Z,21.65
2023-02-17T20:01:16.105Z,22.98
2023-02-17T20:03:43.433Z,22.95
2023-02-17T20:06:19.035Z,23.15
2023-02-17T20:08:47.132Z,22.90
2023-02-17T20:11:15.026Z,23.92
2023-02-17T20:13:46.138Z,23.80
2023-02-17T20:16:15.755Z,25.02
2023-02-17T20:18:46.226Z,24.52
2023-02-17T20:21:19.144Z,24.80
2023-02-17T20:23:46.462Z,25.23
2023-02-17T20:26:16.037Z,23.55
2023-02-17T20:28:43.023Z,24.27
2023-02-17T20:31:10.935Z,25.38
2023-02-17T20:33:38.333Z,23.27
2023-02-17T20:36:07.306Z,23.90
2023-02-17T20:38:34.728Z,24.92
2023-02-17T20:41:01.827Z,24.55
2023-02-17T20:43:28.859Z,23.88
2023-02-17T20:45:56.033Z,21.90
2023-02-17T20:48:27.580Z,22.98
2023-02-17T20:50:55.989Z,20.30
2023-02-17T20:53:23.609Z,21.40
2023-02-17T20:55:51.044Z,21.80
2023-02-17T20:58:19.146Z,22.63
2023-02-17T21:00:46.254Z,23.52
2023-02-17T21:03:13.297Z,22.63
2023-02-17T21:05:40.297Z,21.52
2023-02-17T21:08:07.402Z,19.27
2023-02-17T21:10:34.716Z,20.70
2023-02-17T21:13:01.874Z,22.33
2023-02-17T21:15:28.899Z,19.92
2023-02-17T21:17:55.864Z,22.35
2023-02-17T21:20:23.127Z,20.13
2023-02-17T21:22:50.780Z,20.70
2023-02-17T21:25:17.920Z,21.33
2023-02-17T21:27:44.925Z,19.63
2023-02-17T21:30:12.282Z,21.60
2023-02-17T21:32:39.669Z,20.13
2023-02-17T21:35:09.557Z,21.83
2023-02-17T21:37:38.963Z,19.02
2023-02-17T21:40:07.725Z,19.95
2023-02-17T21:42:55.761Z,16.95
2023-02-17T21:45:23.456Z,14.93
2023-02-17T21:47:51.078Z,14.93
2023-02-17T21:50:18.907Z,14.70
2023-02-17T21:52:45.899Z,13.65
2023-02-17T21:55:12.767Z,13.52
2023-02-17T21:57:39.640Z,14.82
2023-02-17T22:00:08.929Z,12.35
2023-02-17T22:02:39.261Z,14.35
2023-02-17T22:05:07.170Z,14.98
2023-02-17T22:07:34.075Z,15.60
2023-02-17T22:10:01.277Z,15.35
2023-02-17T22:12:28.201Z,15.30
2023-02-17T22:14:55.109Z,15.85
2023-02-17T22:17:21.940Z,14.93
2023-02-17T22:19:48.815Z,16.15
2023-02-17T22:22:15.661Z,16.80
2023-02-17T22:24:42.632Z,16.73
2023-02-17T22:27:09.493Z,17.88
2023-02-17T22:29:36.452Z,16.92
2023-02-17T22:32:03.668Z,15.75
2023-02-17T22:34:30.683Z,15.98
2023-02-17T22:36:57.595Z,16.20
2023-02-17T22:39:24.538Z,15.68
2023-02-17T22:41:51.652Z,14.73
2023-02-17T22:44:18.883Z,15.05
2023-02-17T22:46:45.753Z,14.25
2023-02-17T22:49:12.752Z,15.40
2023-02-17T22:51:40.699Z,15.00
2023-02-17T22:54:08.674Z,15.45
2023-02-17T22:56:36.014Z,15.23
2023-02-17T22:59:04.989Z,15.05
2023-02-17T23:01:34.144Z,14.90
2023-02-17T23:04:01.542Z,15.48
2023-02-17T23:06:34.549Z,15.27
2023-02-17T23:09:02.217Z,16.20
2023-02-17T23:11:50.693Z,15.23
2023-02-17T23:14:22.034Z,14.02
2023-02-17T23:16:49.704Z,14.88
2023-02-17T23:19:18.934Z,14.65
2023-02-17T23:21:49.508Z,17.17
2023-02-17T23:24:18.705Z,17.15
2023-02-17T23:26:47.562Z,15.13
2023-02-17T23:29:15.147Z,15.20
2023-02-17T23:31:42.129Z,15.85
2023-02-17T23:34:11.493Z,15.70
2023-02-17T23:36:42.439Z,17.52
2023-02-17T23:39:10.045Z,17.63
2023-02-17T23:41:38.005Z,17.20
2023-02-17T23:44:07.397Z,16.27
2023-02-17T23:46:34.680Z,16.13
2023-02-17T23:49:01.694Z,16.15
2023-02-17T23:51:28.590Z,16.00
2023-02-17T23:53:55.464Z,15.13
2023-02-17T23:56:29.731Z,16.10
2023-02-17T23:58:56.765Z,16.55
